sensor_id;sensor_type;location;lat;lon;timestamp;noise_LAeq;noise_LA_min;noise_LA_max;noise_LA01;noise_LA95
66458;Laerm;56835;52.198;4.826;2023-02-02T00:00:09;53.84;52.18;55.52;;
66458;Laerm;56835;52.198;4.826;2023-02-02T00:00:20;53.84;51.93;55.48;;
66458;Laerm;56835;52.198;4.826;2023-02-02T00:00:30;53.84;51.88;55.14;;
66458;Laerm;56835;52.198;4.826;2023-02-02T00:00:41;53.76;52.06;55.21;;
66458;Laerm;56835;52.198;4.826;2023-02-02T00:00:51;53.85;52.19;55.42;;
66458;Laerm;56835;52.198;4.826;2023-02-02T00:01:06;53.81;52.00;55.20;;
66458;Laerm;56835;52.198;4.826;2023-02-02T00:01:17;53.92;52.22;55.45;;
66458;Laerm;56835;52.198;4.826;2023-02-02T00:01:28;53.86;52.24;55.24;;
66458;Laerm;56835;52.198;4.826;2023-02-02T00:01:39;53.86;52.25;55.47;;
66458;Laerm;56835;52.198;4.826;2023-02-02T00:01:50;53.86;52.24;55.26;;
66458;Laerm;56835;52.198;4.826;2023-02-02T00:02:00;53.90;51.44;55.37;;
66458;Laerm;56835;52.198;4.826;2023-02-02T00:02:11;53.92;51.88;55.47;;
66458;Laerm;56835;52.198;4.826;2023-02-02T00:02:21;53.81;52.24;55.18;;
66458;Laerm;56835;52.198;4.826;2023-02-02T00:02:31;53.88;51.43;55.87;;
66458;Laerm;56835;52.198;4.826;2023-02-02T00:02:41;53.81;51.98;55.08;;
66458;Laerm;56835;52.198;4.826;2023-02-02T00:02:52;53.81;51.88;55.43;;
66458;Laerm;56835;52.198;4.826;2023-02-02T00:03:02;53.91;52.53;55.44;;
66458;Laerm;56835;52.198;4.826;2023-02-02T00:03:12;53.82;52.37;55.10;;
66458;Laerm;56835;52.198;4.826;2023-02-02T00:03:23;53.85;51.24;55.55;;
66458;Laerm;56835;52.198;4.826;2023-02-02T00:03:33;53.82;52.33;55.65;;
66458;Laerm;56835;52.198;4.826;2023-02-02T00:03:44;53.83;52.24;55.19;;
66458;Laerm;56835;52.198;4.826;2023-02-02T00:03:54;53.85;52.29;55.44;;
66458;Laerm;56835;52.198;4.826;2023-02-02T00:04:06;53.78;52.15;55.40;;
66458;Laerm;56835;52.198;4.826;2023-02-02T00:04:16;53.84;52.13;55.25;;
66458;Laerm;56835;52.198;4.826;2023-02-02T00:04:31;53.92;52.12;55.24;;
66458;Laerm;56835;52.198;4.826;2023-02-02T00:04:41;53.90;52.21;55.36;;
66458;Laerm;56835;52.198;4.826;2023-02-02T00:04:52;53.89;52.20;55.24;;
66458;Laerm;56835;52.198;4.826;2023-02-02T00:05:02;53.83;52.24;55.47;;
66458;Laerm;56835;52.198;4.826;2023-02-02T00:05:12;53.84;51.68;55.14;;
66458;Laerm;56835;52.198;4.826;2023-02-02T00:05:22;53.87;52.16;55.30;;
66458;Laerm;56835;52.198;4.826;2023-02-02T00:05:33;53.79;52.23;55.07;;
66458;Laerm;56835;52.198;4.826;2023-02-02T00:05:44;53.81;51.96;55.05;;
66458;Laerm;56835;52.198;4.826;2023-02-02T00:05:54;53.79;51.77;55.18;;
66458;Laerm;56835;52.198;4.826;2023-02-02T00:06:05;53.83;52.31;55.18;;
66458;Laerm;56835;52.198;4.826;2023-02-02T00:06:16;53.81;52.21;55.58;;
66458;Laerm;56835;52.198;4.826;2023-02-02T00:06:27;53.84;52.30;55.00;;
66458;Laerm;56835;52.198;4.826;2023-02-02T00:06:37;53.82;51.90;55.22;;
66458;Laerm;56835;52.198;4.826;2023-02-02T00:06:48;53.82;52.42;55.62;;
66458;Laerm;56835;52.198;4.826;2023-02-02T00:06:58;53.84;52.49;55.60;;
66458;Laerm;56835;52.198;4.826;2023-02-02T00:07:09;53.87;51.86;55.34;;
66458;Laerm;56835;52.198;4.826;2023-02-02T00:07:19;53.88;51.72;55.21;;
66458;Laerm;56835;52.198;4.826;2023-02-02T00:07:29;53.86;52.27;55.08;;
66458;Laerm;56835;52.198;4.826;2023-02-02T00:07:39;53.81;52.28;55.35;;
66458;Laerm;56835;52.198;4.826;2023-02-02T00:07:50;53.84;52.01;55.29;;
66458;Laerm;56835;52.198;4.826;2023-02-02T00:08:00;53.82;52.07;55.32;;
66458;Laerm;56835;52.198;4.826;2023-02-02T00:08:10;53.83;52.32;54.90;;
66458;Laerm;56835;52.198;4.826;2023-02-02T00:08:21;53.85;51.46;55.17;;
66458;Laerm;56835;52.198;4.826;2023-02-02T00:08:31;53.87;52.18;55.15;;
66458;Laerm;56835;52.198;4.826;2023-02-02T00:08:42;53.92;52.05;55.34;;
66458;Laerm;56835;52.198;4.826;2023-02-02T00:08:54;53.87;51.79;55.45;;
66458;Laerm;56835;52.198;4.826;2023-02-02T00:09:04;53.81;52.14;55.20;;
66458;Laerm;56835;52.198;4.826;2023-02-02T00:09:16;53.75;52.07;55.57;;
66458;Laerm;56835;52.198;4.826;2023-02-02T00:09:28;53.81;52.29;55.53;;
66458;Laerm;56835;52.198;4.826;2023-02-02T00:09:38;53.84;52.41;55.18;;
66458;Laerm;56835;52.198;4.826;2023-02-02T00:09:49;53.85;52.32;55.12;;
66458;Laerm;56835;52.198;4.826;2023-02-02T00:09:59;53.85;52.08;55.03;;
66458;Laerm;56835;52.198;4.826;2023-02-02T00:10:09;53.77;52.11;55.34;;
66458;Laerm;56835;52.198;4.826;2023-02-02T00:10:20;53.84;52.03;55.23;;
66458;Laerm;56835;52.198;4.826;2023-02-02T00:10:30;53.88;52.03;55.30;;
66458;Laerm;56835;52.198;4.826;2023-02-02T00:10:40;53.85;52.32;55.88;;
66458;Laerm;56835;52.198;4.826;2023-02-02T00:10:51;53.80;51.86;55.41;;
66458;Laerm;56835;52.198;4.826;2023-02-02T00:11:01;53.87;51.93;55.17;;
66458;Laerm;56835;52.198;4.826;2023-02-02T00:11:11;53.85;51.92;55.36;;
66458;Laerm;56835;52.198;4.826;2023-02-02T00:11:22;53.86;52.20;55.30;;
66458;Laerm;56835;52.198;4.826;2023-02-02T00:11:32;53.82;52.10;55.41;;
66458;Laerm;56835;52.198;4.826;2023-02-02T00:11:43;53.85;51.85;55.12;;
66458;Laerm;56835;52.198;4.826;2023-02-02T00:11:53;53.77;51.93;55.66;;
66458;Laerm;56835;52.198;4.826;2023-02-02T00:12:04;53.78;51.91;55.31;;
66458;Laerm;56835;52.198;4.826;2023-02-02T00:12:14;53.83;52.31;55.24;;
66458;Laerm;56835;52.198;4.826;2023-02-02T00:12:25;53.84;52.33;55.42;;
66458;Laerm;56835;52.198;4.826;2023-02-02T00:12:37;53.82;52.16;55.60;;
66458;Laerm;56835;52.198;4.826;2023-02-02T00:12:47;53.81;52.17;55.46;;
66458;Laerm;56835;52.198;4.826;2023-02-02T00:12:57;53.85;51.95;55.46;;
66458;Laerm;56835;52.198;4.826;2023-02-02T00:13:07;53.83;51.52;55.19;;
66458;Laerm;56835;52.198;4.826;2023-02-02T00:13:18;53.87;52.27;55.21;;
66458;Laerm;56835;52.198;4.826;2023-02-02T00:13:28;53.86;52.17;55.17;;
66458;Laerm;56835;52.198;4.826;2023-02-02T00:13:38;53.83;52.12;55.20;;
66458;Laerm;56835;52.198;4.826;2023-02-02T00:13:49;53.79;52.37;55.42;;
66458;Laerm;56835;52.198;4.826;2023-02-02T00:13:59;53.78;52.03;55.11;;
66458;Laerm;56835;52.198;4.826;2023-02-02T00:14:10;53.83;52.23;55.45;;
66458;Laerm;56835;52.198;4.826;2023-02-02T00:14:20;53.87;51.53;55.39;;
66458;Laerm;56835;52.198;4.826;2023-02-02T00:14:31;53.82;51.86;55.87;;
66458;Laerm;56835;52.198;4.826;2023-02-02T00:14:41;53.82;52.32;55.04;;
66458;Laerm;56835;52.198;4.826;2023-02-02T00:14:51;53.82;52.19;55.40;;
66458;Laerm;56835;52.198;4.826;2023-02-02T00:15:01;53.86;52.43;55.27;;
66458;Laerm;56835;52.198;4.826;2023-02-02T00:15:12;53.84;51.80;55.25;;
66458;Laerm;56835;52.198;4.826;2023-02-02T00:15:25;53.87;52.30;55.33;;
66458;Laerm;56835;52.198;4.826;2023-02-02T00:15:35;53.83;52.12;55.33;;
66458;Laerm;56835;52.198;4.826;2023-02-02T00:15:45;53.85;51.99;55.03;;
66458;Laerm;56835;52.198;4.826;2023-02-02T00:15:55;53.83;52.51;55.09;;
66458;Laerm;56835;52.198;4.826;2023-02-02T00:16:38;53.86;51.42;55.53;;
66458;Laerm;56835;52.198;4.826;2023-02-02T00:16:57;53.84;52.04;55.37;;
66458;Laerm;56835;52.198;4.826;2023-02-02T00:17:08;53.86;51.63;55.20;;
66458;Laerm;56835;52.198;4.826;2023-02-02T00:17:19;53.82;52.15;55.37;;
66458;Laerm;56835;52.198;4.826;2023-02-02T00:17:29;53.85;52.03;55.31;;
66458;Laerm;56835;52.198;4.826;2023-02-02T00:17:39;53.86;52.33;55.79;;
66458;Laerm;56835;52.198;4.826;2023-02-02T00:17:50;53.91;52.03;55.57;;
66458;Laerm;56835;52.198;4.826;2023-02-02T00:18:00;53.91;52.30;55.35;;
66458;Laerm;56835;52.198;4.826;2023-02-02T00:18:10;53.89;51.95;55.42;;
66458;Laerm;56835;52.198;4.826;2023-02-02T00:18:20;53.88;51.99;55.28;;
66458;Laerm;56835;52.198;4.826;2023-02-02T00:18:31;53.79;51.83;55.23;;
66458;Laerm;56835;52.198;4.826;2023-02-02T00:18:41;53.84;52.17;55.16;;
66458;Laerm;56835;52.198;4.826;2023-02-02T00:18:52;53.94;52.37;55.22;;
66458;Laerm;56835;52.198;4.826;2023-02-02T00:19:24;53.98;52.35;55.38;;
66458;Laerm;56835;52.198;4.826;2023-02-02T00:19:33;53.93;52.10;55.42;;
66458;Laerm;56835;52.198;4.826;2023-02-02T00:19:43;53.81;52.01;55.36;;
66458;Laerm;56835;52.198;4.826;2023-02-02T00:19:55;53.91;52.21;55.53;;
66458;Laerm;56835;52.198;4.826;2023-02-02T00:20:06;53.88;52.13;55.18;;
66458;Laerm;56835;52.198;4.826;2023-02-02T00:20:16;53.84;51.91;55.52;;
66458;Laerm;56835;52.198;4.826;2023-02-02T00:20:26;53.86;52.44;55.22;;
66458;Laerm;56835;52.198;4.826;2023-02-02T00:20:37;53.94;51.96;55.55;;
66458;Laerm;56835;52.198;4.826;2023-02-02T00:20:47;53.89;52.62;55.00;;
66458;Laerm;56835;52.198;4.826;2023-02-02T00:21:01;53.91;51.79;55.09;;
66458;Laerm;56835;52.198;4.826;2023-02-02T00:21:12;53.94;52.43;55.13;;
66458;Laerm;56835;52.198;4.826;2023-02-02T00:21:22;53.92;51.47;55.32;;
66458;Laerm;56835;52.198;4.826;2023-02-02T00:21:32;53.93;52.08;55.42;;
66458;Laerm;56835;52.198;4.826;2023-02-02T00:21:43;53.93;52.38;55.66;;
66458;Laerm;56835;52.198;4.826;2023-02-02T00:21:54;53.93;52.41;55.17;;
66458;Laerm;56835;52.198;4.826;2023-02-02T00:22:04;53.88;52.34;55.24;;
66458;Laerm;56835;52.198;4.826;2023-02-02T00:22:14;53.90;52.32;55.58;;
66458;Laerm;56835;52.198;4.826;2023-02-02T00:22:25;53.91;52.08;55.50;;
66458;Laerm;56835;52.198;4.826;2023-02-02T00:22:37;53.92;52.00;55.81;;
66458;Laerm;56835;52.198;4.826;2023-02-02T00:22:47;53.94;52.27;55.23;;
66458;Laerm;56835;52.198;4.826;2023-02-02T00:22:57;53.89;52.12;55.12;;
66458;Laerm;56835;52.198;4.826;2023-02-02T00:23:07;53.89;52.17;55.56;;
66458;Laerm;56835;52.198;4.826;2023-02-02T00:23:18;53.89;52.12;55.31;;
66458;Laerm;56835;52.198;4.826;2023-02-02T00:23:28;53.90;52.67;55.51;;
66458;Laerm;56835;52.198;4.826;2023-02-02T00:23:38;53.91;52.30;55.35;;
66458;Laerm;56835;52.198;4.826;2023-02-02T00:23:48;53.93;52.07;55.44;;
66458;Laerm;56835;52.198;4.826;2023-02-02T00:23:59;53.92;51.98;55.39;;
66458;Laerm;56835;52.198;4.826;2023-02-02T00:24:15;53.96;52.20;55.15;;
66458;Laerm;56835;52.198;4.826;2023-02-02T00:24:27;53.92;52.13;55.42;;
66458;Laerm;56835;52.198;4.826;2023-02-02T00:24:37;53.97;52.40;55.59;;
66458;Laerm;56835;52.198;4.826;2023-02-02T00:24:47;53.97;52.01;55.46;;
66458;Laerm;56835;52.198;4.826;2023-02-02T00:24:57;53.94;52.54;55.45;;
66458;Laerm;56835;52.198;4.826;2023-02-02T00:25:08;53.98;52.09;55.35;;
66458;Laerm;56835;52.198;4.826;2023-02-02T00:25:18;53.92;52.26;55.17;;
66458;Laerm;56835;52.198;4.826;2023-02-02T00:25:29;53.97;51.94;55.34;;
66458;Laerm;56835;52.198;4.826;2023-02-02T00:25:39;53.94;51.76;55.09;;
66458;Laerm;56835;52.198;4.826;2023-02-02T00:25:49;53.97;51.86;55.34;;
66458;Laerm;56835;52.198;4.826;2023-02-02T00:26:00;53.96;52.08;55.28;;
66458;Laerm;56835;52.198;4.826;2023-02-02T00:26:10;53.98;52.43;55.19;;
66458;Laerm;56835;52.198;4.826;2023-02-02T00:26:20;53.96;52.02;55.48;;
66458;Laerm;56835;52.198;4.826;2023-02-02T00:26:31;53.94;52.03;55.56;;
66458;Laerm;56835;52.198;4.826;2023-02-02T00:26:41;54.01;52.10;55.21;;
66458;Laerm;56835;52.198;4.826;2023-02-02T00:26:53;54.04;51.96;55.55;;
66458;Laerm;56835;52.198;4.826;2023-02-02T00:27:03;53.97;52.41;55.21;;
66458;Laerm;56835;52.198;4.826;2023-02-02T00:27:14;54.00;52.23;55.38;;
66458;Laerm;56835;52.198;4.826;2023-02-02T00:27:24;53.96;52.50;55.27;;
66458;Laerm;56835;52.198;4.826;2023-02-02T00:27:34;53.90;51.74;55.67;;
66458;Laerm;56835;52.198;4.826;2023-02-02T00:27:44;53.99;51.80;55.56;;
66458;Laerm;56835;52.198;4.826;2023-02-02T00:27:55;53.96;52.10;55.21;;
66458;Laerm;56835;52.198;4.826;2023-02-02T00:28:05;54.01;52.00;55.57;;
66458;Laerm;56835;52.198;4.826;2023-02-02T00:28:15;53.98;52.51;55.17;;
66458;Laerm;56835;52.198;4.826;2023-02-02T00:28:26;53.96;52.62;55.49;;
66458;Laerm;56835;52.198;4.826;2023-02-02T00:28:36;53.99;52.21;55.52;;
66458;Laerm;56835;52.198;4.826;2023-02-02T00:28:46;53.89;52.03;55.58;;
66458;Laerm;56835;52.198;4.826;2023-02-02T00:28:57;53.96;52.32;55.28;;
66458;Laerm;56835;52.198;4.826;2023-02-02T00:29:09;53.98;52.43;55.35;;
66458;Laerm;56835;52.198;4.826;2023-02-02T00:29:23;53.98;52.32;55.95;;
66458;Laerm;56835;52.198;4.826;2023-02-02T00:29:33;54.02;52.30;55.53;;
66458;Laerm;56835;52.198;4.826;2023-02-02T00:29:43;54.02;52.12;55.22;;
66458;Laerm;56835;52.198;4.826;2023-02-02T00:29:54;53.99;52.38;55.14;;
66458;Laerm;56835;52.198;4.826;2023-02-02T00:30:06;53.96;51.97;55.84;;
66458;Laerm;56835;52.198;4.826;2023-02-02T00:30:17;53.80;52.01;55.34;;
66458;Laerm;56835;52.198;4.826;2023-02-02T00:30:27;53.99;52.41;55.29;;
66458;Laerm;56835;52.198;4.826;2023-02-02T00:30:37;54.04;51.29;55.42;;
66458;Laerm;56835;52.198;4.826;2023-02-02T00:30:48;53.97;52.03;55.23;;
66458;Laerm;56835;52.198;4.826;2023-02-02T00:30:58;53.92;52.04;55.27;;
66458;Laerm;56835;52.198;4.826;2023-02-02T00:31:08;53.94;51.94;55.54;;
66458;Laerm;56835;52.198;4.826;2023-02-02T00:31:18;53.98;52.38;55.61;;
66458;Laerm;56835;52.198;4.826;2023-02-02T00:31:29;53.95;51.64;55.08;;
66458;Laerm;56835;52.198;4.826;2023-02-02T00:31:39;53.97;52.33;55.46;;
66458;Laerm;56835;52.198;4.826;2023-02-02T00:31:50;53.97;52.16;55.35;;
66458;Laerm;56835;52.198;4.826;2023-02-02T00:32:00;54.02;51.91;55.32;;
66458;Laerm;56835;52.198;4.826;2023-02-02T00:32:10;54.02;52.43;55.30;;
66458;Laerm;56835;52.198;4.826;2023-02-02T00:32:21;54.07;52.46;55.36;;
66458;Laerm;56835;52.198;4.826;2023-02-02T00:32:31;54.05;52.30;55.56;;
66458;Laerm;56835;52.198;4.826;2023-02-02T00:32:41;54.09;52.24;55.46;;
66458;Laerm;56835;52.198;4.826;2023-02-02T00:32:51;54.01;52.18;55.34;;
66458;Laerm;56835;52.198;4.826;2023-02-02T00:33:02;54.02;52.56;55.33;;
66458;Laerm;56835;52.198;4.826;2023-02-02T00:33:12;54.04;52.34;55.54;;
66458;Laerm;56835;52.198;4.826;2023-02-02T00:33:23;54.03;51.33;55.31;;
66458;Laerm;56835;52.198;4.826;2023-02-02T00:33:33;53.95;51.93;55.31;;
66458;Laerm;56835;52.198;4.826;2023-02-02T00:33:44;54.00;52.52;55.61;;
66458;Laerm;56835;52.198;4.826;2023-02-02T00:33:55;53.99;52.38;55.49;;
66458;Laerm;56835;52.198;4.826;2023-02-02T00:34:05;53.97;52.40;55.41;;
66458;Laerm;56835;52.198;4.826;2023-02-02T00:34:15;54.01;52.76;55.57;;
66458;Laerm;56835;52.198;4.826;2023-02-02T00:34:26;54.03;52.27;55.62;;
66458;Laerm;56835;52.198;4.826;2023-02-02T00:34:36;53.98;52.29;55.34;;
66458;Laerm;56835;52.198;4.826;2023-02-02T00:34:46;53.93;52.15;55.34;;
66458;Laerm;56835;52.198;4.826;2023-02-02T00:34:57;54.05;52.31;55.48;;
66458;Laerm;56835;52.198;4.826;2023-02-02T00:35:07;53.99;52.24;55.48;;
66458;Laerm;56835;52.198;4.826;2023-02-02T00:35:18;53.94;52.48;55.22;;
66458;Laerm;56835;52.198;4.826;2023-02-02T00:35:28;53.94;52.24;55.43;;
66458;Laerm;56835;52.198;4.826;2023-02-02T00:35:39;53.92;52.26;55.35;;
66458;Laerm;56835;52.198;4.826;2023-02-02T00:35:52;54.04;52.59;55.20;;
66458;Laerm;56835;52.198;4.826;2023-02-02T00:36:03;54.02;52.35;55.32;;
66458;Laerm;56835;52.198;4.826;2023-02-02T00:36:13;53.98;52.17;55.47;;
66458;Laerm;56835;52.198;4.826;2023-02-02T00:36:23;54.00;52.79;55.27;;
66458;Laerm;56835;52.198;4.826;2023-02-02T00:36:34;54.05;51.62;55.40;;
66458;Laerm;56835;52.198;4.826;2023-02-02T00:36:45;54.04;52.52;55.58;;
66458;Laerm;56835;52.198;4.826;2023-02-02T00:36:55;54.06;52.53;55.95;;
66458;Laerm;56835;52.198;4.826;2023-02-02T00:37:05;54.16;52.11;55.55;;
66458;Laerm;56835;52.198;4.826;2023-02-02T00:37:16;54.04;52.41;55.37;;
66458;Laerm;56835;52.198;4.826;2023-02-02T00:37:26;54.00;52.29;55.44;;
66458;Laerm;56835;52.198;4.826;2023-02-02T00:37:36;54.02;52.49;55.30;;
66458;Laerm;56835;52.198;4.826;2023-02-02T00:37:46;53.95;52.07;55.44;;
66458;Laerm;56835;52.198;4.826;2023-02-02T00:37:57;53.96;52.36;55.65;;
66458;Laerm;56835;52.198;4.826;2023-02-02T00:38:07;53.95;51.38;55.16;;
66458;Laerm;56835;52.198;4.826;2023-02-02T00:38:17;54.09;52.33;55.73;;
66458;Laerm;56835;52.198;4.826;2023-02-02T00:38:28;53.98;52.22;55.38;;
66458;Laerm;56835;52.198;4.826;2023-02-02T00:38:38;54.02;51.93;55.60;;
66458;Laerm;56835;52.198;4.826;2023-02-02T00:38:49;53.99;52.18;55.37;;
66458;Laerm;56835;52.198;4.826;2023-02-02T00:39:00;53.99;52.11;55.16;;
66458;Laerm;56835;52.198;4.826;2023-02-02T00:39:13;54.01;52.38;55.48;;
66458;Laerm;56835;52.198;4.826;2023-02-02T00:39:24;53.99;52.27;55.58;;
66458;Laerm;56835;52.198;4.826;2023-02-02T00:39:35;53.99;51.59;55.53;;
66458;Laerm;56835;52.198;4.826;2023-02-02T00:39:45;53.95;52.17;55.44;;
66458;Laerm;56835;52.198;4.826;2023-02-02T00:39:55;53.96;52.45;55.42;;
66458;Laerm;56835;52.198;4.826;2023-02-02T00:40:06;53.93;52.42;55.23;;
66458;Laerm;56835;52.198;4.826;2023-02-02T00:40:17;53.98;52.37;55.28;;
66458;Laerm;56835;52.198;4.826;2023-02-02T00:40:27;53.92;52.46;55.21;;
66458;Laerm;56835;52.198;4.826;2023-02-02T00:40:37;54.03;52.19;55.38;;
66458;Laerm;56835;52.198;4.826;2023-02-02T00:40:47;53.97;52.37;55.46;;
66458;Laerm;56835;52.198;4.826;2023-02-02T00:40:58;54.06;52.23;55.39;;
66458;Laerm;56835;52.198;4.826;2023-02-02T00:41:08;54.01;52.55;55.64;;
66458;Laerm;56835;52.198;4.826;2023-02-02T00:41:18;54.01;52.35;55.47;;
66458;Laerm;56835;52.198;4.826;2023-02-02T00:41:29;54.01;52.23;55.92;;
66458;Laerm;56835;52.198;4.826;2023-02-02T00:41:39;54.02;52.32;55.59;;
66458;Laerm;56835;52.198;4.826;2023-02-02T00:41:49;54.06;52.31;55.47;;
66458;Laerm;56835;52.198;4.826;2023-02-02T00:41:59;53.96;52.22;55.51;;
66458;Laerm;56835;52.198;4.826;2023-02-02T00:42:10;53.96;52.10;55.02;;
66458;Laerm;56835;52.198;4.826;2023-02-02T00:42:20;54.02;52.10;55.59;;
66458;Laerm;56835;52.198;4.826;2023-02-02T00:42:30;54.00;52.30;55.50;;
66458;Laerm;56835;52.198;4.826;2023-02-02T00:42:41;53.97;52.09;55.55;;
66458;Laerm;56835;52.198;4.826;2023-02-02T00:42:52;53.94;51.58;55.22;;
66458;Laerm;56835;52.198;4.826;2023-02-02T00:43:02;53.94;52.32;55.87;;
66458;Laerm;56835;52.198;4.826;2023-02-02T00:43:13;53.98;52.27;55.48;;
66458;Laerm;56835;52.198;4.826;2023-02-02T00:43:23;53.98;52.37;55.27;;
66458;Laerm;56835;52.198;4.826;2023-02-02T00:43:33;54.01;52.51;55.34;;
66458;Laerm;56835;52.198;4.826;2023-02-02T00:43:43;54.01;52.45;55.33;;
66458;Laerm;56835;52.198;4.826;2023-02-02T00:43:54;54.00;51.97;55.70;;
66458;Laerm;56835;52.198;4.826;2023-02-02T00:44:23;54.01;51.76;55.73;;
66458;Laerm;56835;52.198;4.826;2023-02-02T00:44:51;53.96;51.89;55.65;;
66458;Laerm;56835;52.198;4.826;2023-02-02T00:45:37;53.98;51.31;55.63;;
66458;Laerm;56835;52.198;4.826;2023-02-02T00:45:48;53.92;52.23;55.59;;
66458;Laerm;56835;52.198;4.826;2023-02-02T00:45:58;53.96;52.39;55.22;;
66458;Laerm;56835;52.198;4.826;2023-02-02T00:46:11;53.95;51.83;55.38;;
66458;Laerm;56835;52.198;4.826;2023-02-02T00:46:22;53.97;52.10;55.39;;
66458;Laerm;56835;52.198;4.826;2023-02-02T00:46:33;53.94;52.32;55.40;;
66458;Laerm;56835;52.198;4.826;2023-02-02T00:46:43;53.95;52.16;55.38;;
66458;Laerm;56835;52.198;4.826;2023-02-02T00:46:53;53.92;52.01;55.92;;
66458;Laerm;56835;52.198;4.826;2023-02-02T00:47:03;53.90;52.28;55.35;;
66458;Laerm;56835;52.198;4.826;2023-02-02T00:47:14;53.91;52.33;55.44;;
66458;Laerm;56835;52.198;4.826;2023-02-02T00:47:25;53.96;52.33;55.67;;
66458;Laerm;56835;52.198;4.826;2023-02-02T00:47:36;53.96;52.14;55.18;;
66458;Laerm;56835;52.198;4.826;2023-02-02T00:47:47;54.03;52.14;55.24;;
66458;Laerm;56835;52.198;4.826;2023-02-02T00:47:57;54.00;52.20;55.45;;
66458;Laerm;56835;52.198;4.826;2023-02-02T00:48:07;54.06;52.36;55.41;;
66458;Laerm;56835;52.198;4.826;2023-02-02T00:48:19;54.05;52.36;55.48;;
66458;Laerm;56835;52.198;4.826;2023-02-02T00:48:30;54.00;52.55;55.73;;
66458;Laerm;56835;52.198;4.826;2023-02-02T00:48:40;54.02;51.92;55.45;;
66458;Laerm;56835;52.198;4.826;2023-02-02T00:48:50;54.00;52.00;55.33;;
66458;Laerm;56835;52.198;4.826;2023-02-02T00:49:00;53.90;51.52;55.18;;
66458;Laerm;56835;52.198;4.826;2023-02-02T00:49:11;53.96;52.21;55.57;;
66458;Laerm;56835;52.198;4.826;2023-02-02T00:49:21;53.91;51.98;55.50;;
66458;Laerm;56835;52.198;4.826;2023-02-02T00:49:31;53.97;52.28;55.44;;
66458;Laerm;56835;52.198;4.826;2023-02-02T00:49:41;53.93;52.27;55.45;;
66458;Laerm;56835;52.198;4.826;2023-02-02T00:49:52;53.97;52.05;55.35;;
66458;Laerm;56835;52.198;4.826;2023-02-02T00:50:02;54.01;52.53;55.37;;
66458;Laerm;56835;52.198;4.826;2023-02-02T00:50:17;53.97;52.25;55.35;;
66458;Laerm;56835;52.198;4.826;2023-02-02T00:50:28;54.01;51.97;55.46;;
66458;Laerm;56835;52.198;4.826;2023-02-02T00:50:38;53.94;52.40;55.44;;
66458;Laerm;56835;52.198;4.826;2023-02-02T00:50:48;53.95;51.64;55.50;;
66458;Laerm;56835;52.198;4.826;2023-02-02T00:50:59;53.91;52.19;55.28;;
66458;Laerm;56835;52.198;4.826;2023-02-02T00:51:11;53.96;52.04;55.19;;
66458;Laerm;56835;52.198;4.826;2023-02-02T00:51:21;53.96;52.28;55.23;;
66458;Laerm;56835;52.198;4.826;2023-02-02T00:51:31;54.05;52.52;55.61;;
66458;Laerm;56835;52.198;4.826;2023-02-02T00:51:42;53.99;51.66;55.24;;
66458;Laerm;56835;52.198;4.826;2023-02-02T00:51:52;53.94;52.35;55.23;;
66458;Laerm;56835;52.198;4.826;2023-02-02T00:52:02;53.95;52.36;55.21;;
66458;Laerm;56835;52.198;4.826;2023-02-02T00:52:13;53.94;51.80;55.51;;
66458;Laerm;56835;52.198;4.826;2023-02-02T00:52:23;53.97;52.20;55.84;;
66458;Laerm;56835;52.198;4.826;2023-02-02T00:52:33;54.00;52.63;55.52;;
66458;Laerm;56835;52.198;4.826;2023-02-02T00:52:44;53.97;52.34;55.41;;
66458;Laerm;56835;52.198;4.826;2023-02-02T00:52:54;53.93;52.12;55.34;;
66458;Laerm;56835;52.198;4.826;2023-02-02T00:53:04;53.96;52.18;55.48;;
66458;Laerm;56835;52.198;4.826;2023-02-02T00:53:15;53.89;52.08;55.32;;
66458;Laerm;56835;52.198;4.826;2023-02-02T00:53:25;53.90;51.89;55.46;;
66458;Laerm;56835;52.198;4.826;2023-02-02T00:53:35;54.02;51.89;55.35;;
66458;Laerm;56835;52.198;4.826;2023-02-02T00:53:45;54.02;52.25;55.58;;
66458;Laerm;56835;52.198;4.826;2023-02-02T00:53:56;54.02;52.48;55.44;;
66458;Laerm;56835;52.198;4.826;2023-02-02T00:54:06;53.99;52.55;55.73;;
66458;Laerm;56835;52.198;4.826;2023-02-02T00:54:16;53.88;52.04;55.43;;
66458;Laerm;56835;52.198;4.826;2023-02-02T00:54:27;54.00;52.20;55.47;;
66458;Laerm;56835;52.198;4.826;2023-02-02T00:54:37;54.12;52.51;55.60;;
66458;Laerm;56835;52.198;4.826;2023-02-02T00:54:47;54.13;52.25;55.65;;
66458;Laerm;56835;52.198;4.826;2023-02-02T00:54:58;53.97;51.42;55.20;;
66458;Laerm;56835;52.198;4.826;2023-02-02T00:55:08;53.93;51.94;55.31;;
66458;Laerm;56835;52.198;4.826;2023-02-02T00:55:19;53.97;52.39;55.42;;
66458;Laerm;56835;52.198;4.826;2023-02-02T00:55:29;53.99;51.80;55.31;;
66458;Laerm;56835;52.198;4.826;2023-02-02T00:55:40;53.91;52.11;55.15;;
66458;Laerm;56835;52.198;4.826;2023-02-02T00:55:50;53.98;52.36;55.49;;
66458;Laerm;56835;52.198;4.826;2023-02-02T00:56:00;53.97;52.35;55.70;;
66458;Laerm;56835;52.198;4.826;2023-02-02T00:56:10;53.87;52.04;55.22;;
66458;Laerm;56835;52.198;4.826;2023-02-02T00:56:21;53.98;52.34;55.13;;
66458;Laerm;56835;52.198;4.826;2023-02-02T00:56:31;53.98;52.49;55.51;;
66458;Laerm;56835;52.198;4.826;2023-02-02T00:56:41;53.97;52.23;55.30;;
66458;Laerm;56835;52.198;4.826;2023-02-02T00:56:52;53.98;52.17;55.51;;
66458;Laerm;56835;52.198;4.826;2023-02-02T00:57:02;54.02;52.40;55.50;;
66458;Laerm;56835;52.198;4.826;2023-02-02T00:57:13;53.93;52.17;55.62;;
66458;Laerm;56835;52.198;4.826;2023-02-02T00:57:23;54.05;52.47;55.46;;
66458;Laerm;56835;52.198;4.826;2023-02-02T00:57:33;53.94;52.17;55.46;;
66458;Laerm;56835;52.198;4.826;2023-02-02T00:57:44;53.93;51.95;55.50;;
66458;Laerm;56835;52.198;4.826;2023-02-02T00:57:54;53.98;52.20;55.35;;
66458;Laerm;56835;52.198;4.826;2023-02-02T00:58:04;53.72;52.12;55.26;;
66458;Laerm;56835;52.198;4.826;2023-02-02T00:58:15;53.91;51.96;55.35;;
66458;Laerm;56835;52.198;4.826;2023-02-02T00:58:25;54.06;52.60;55.61;;
66458;Laerm;56835;52.198;4.826;2023-02-02T00:58:35;53.96;52.37;55.38;;
66458;Laerm;56835;52.198;4.826;2023-02-02T00:58:45;53.94;52.05;55.34;;
66458;Laerm;56835;52.198;4.826;2023-02-02T00:58:56;53.94;52.10;55.42;;
66458;Laerm;56835;52.198;4.826;2023-02-02T00:59:06;53.96;52.16;55.59;;
66458;Laerm;56835;52.198;4.826;2023-02-02T00:59:16;53.97;52.24;55.26;;
66458;Laerm;56835;52.198;4.826;2023-02-02T00:59:26;53.97;51.80;55.21;;
66458;Laerm;56835;52.198;4.826;2023-02-02T00:59:37;53.95;52.16;55.59;;
66458;Laerm;56835;52.198;4.826;2023-02-02T00:59:47;53.99;52.07;55.28;;
66458;Laerm;56835;52.198;4.826;2023-02-02T00:59:57;53.97;52.35;55.73;;
66458;Laerm;56835;52.198;4.826;2023-02-02T01:00:08;53.93;52.23;55.51;;
66458;Laerm;56835;52.198;4.826;2023-02-02T01:00:21;53.98;52.03;55.47;;
66458;Laerm;56835;52.198;4.826;2023-02-02T01:00:32;53.99;52.28;55.55;;
66458;Laerm;56835;52.198;4.826;2023-02-02T01:00:43;53.95;51.90;55.37;;
66458;Laerm;56835;52.198;4.826;2023-02-02T01:00:53;53.98;52.53;55.82;;
66458;Laerm;56835;52.198;4.826;2023-02-02T01:01:03;54.05;52.28;55.70;;
66458;Laerm;56835;52.198;4.826;2023-02-02T01:01:14;54.08;52.41;55.63;;
66458;Laerm;56835;52.198;4.826;2023-02-02T01:01:25;54.07;52.55;55.57;;